createdAt,value
2022-08-14T00:00:08.192Z,99860.38
2022-08-14T00:03:19.107Z,99846.78
2022-08-14T00:06:28.535Z,99850.53
2022-08-14T00:09:32.957Z,99851.53
2022-08-14T00:12:43.170Z,99837.09
2022-08-14T00:15:51.471Z,99836.72
2022-08-14T00:19:06.142Z,99824.16
2022-08-14T00:22:44.404Z,99821.91
2022-08-14T00:25:42.321Z,99823.69
2022-08-14T00:28:44.750Z,99814.81
2022-08-14T00:31:47.629Z,99821.59
2022-08-14T00:35:01.211Z,99809.97
2022-08-14T00:38:02.752Z,99801.75
2022-08-14T00:41:10.943Z,99800.72
2022-08-14T00:44:13.298Z,99800.22
2022-08-14T00:47:17.266Z,99798.50
2022-08-14T00:50:21.905Z,99787.09
2022-08-14T00:53:25.387Z,99788.72
2022-08-14T00:56:31.345Z,99791.81
2022-08-14T00:59:33.041Z,99791.38
2022-08-14T01:02:36.341Z,99791.31
2022-08-14T01:05:50.901Z,99788.72
2022-08-14T01:08:58.192Z,99794.84
2022-08-14T01:12:03.578Z,99783.47
2022-08-14T01:15:05.599Z,99772.00
2022-08-14T01:18:30.552Z,99773.25
2022-08-14T01:21:38.837Z,99777.56
2022-08-14T01:24:50.775Z,99773.28
2022-08-14T01:27:57.727Z,99767.53
2022-08-14T01:31:00.345Z,99768.22
2022-08-14T01:35:17.904Z,99767.28
2022-08-14T01:37:28.777Z,99764.19
2022-08-14T01:40:36.551Z,99749.09
2022-08-14T01:43:56.352Z,99753.09
2022-08-14T01:47:01.207Z,99748.31
2022-08-14T01:50:03.299Z,99745.41
2022-08-14T01:53:04.930Z,99746.91
2022-08-14T01:56:12.074Z,99736.38
2022-08-14T01:59:31.713Z,99727.00
2022-08-14T02:02:39.838Z,99724.75
2022-08-14T02:05:41.450Z,99715.69
2022-08-14T02:08:52.569Z,99712.22
2022-08-14T02:11:56.555Z,99713.69
2022-08-14T02:15:01.180Z,99701.00
2022-08-14T02:18:04.260Z,99688.31
2022-08-14T02:21:06.259Z,99697.00
2022-08-14T02:24:09.402Z,99700.66
2022-08-14T02:28:23.038Z,99703.19
2022-08-14T02:30:52.382Z,99703.69
2022-08-14T02:33:54.906Z,99721.56
2022-08-14T02:37:06.916Z,99715.88
2022-08-14T02:40:09.224Z,99719.34
2022-08-14T02:43:11.742Z,99708.31
2022-08-14T02:46:13.496Z,99703.03
2022-08-14T02:49:27.395Z,99691.06
2022-08-14T02:52:57.067Z,99686.34
2022-08-14T02:56:02.664Z,99674.94
2022-08-14T02:59:07.756Z,99671.00
2022-08-14T03:02:33.517Z,99686.09
2022-08-14T03:05:35.954Z,99686.00
2022-08-14T03:08:39.073Z,99681.81
2022-08-14T03:11:47.597Z,99692.28
2022-08-14T03:14:52.019Z,99689.91
2022-08-14T03:17:56.863Z,99693.03
2022-08-14T03:21:07.556Z,99699.59
2022-08-14T03:24:16.363Z,99696.63
2022-08-14T03:27:22.989Z,99700.81
2022-08-14T03:30:38.890Z,99703.41
2022-08-14T03:33:43.595Z,99718.19
2022-08-14T03:37:28.666Z,99709.41
2022-08-14T03:40:11.424Z,99713.47
2022-08-14T03:43:19.736Z,99710.59
2022-08-14T03:46:52.942Z,99703.66
2022-08-14T03:49:49.778Z,99701.09
2022-08-14T03:52:55.992Z,99705.75
2022-08-14T03:55:59.145Z,99699.72
2022-08-14T03:59:17.859Z,99696.41
2022-08-14T04:02:32.655Z,99693.63
2022-08-14T04:05:42.842Z,99684.63
2022-08-14T04:11:51.549Z,99685.41
2022-08-14T04:14:53.110Z,99686.25
2022-08-14T04:17:55.073Z,99686.25
2022-08-14T04:20:58.674Z,99682.75
2022-08-14T04:24:01.713Z,99681.53
2022-08-14T04:27:03.334Z,99676.41
2022-08-14T04:30:06.037Z,99675.16
2022-08-14T04:33:17.132Z,99679.34
2022-08-14T04:36:21.986Z,99669.16
2022-08-14T04:39:46.339Z,99672.19
2022-08-14T04:43:07.039Z,99666.56
2022-08-14T04:46:55.772Z,99667.94
2022-08-14T04:49:56.712Z,99670.91
2022-08-14T04:52:59.205Z,99667.50
2022-08-14T04:56:05.806Z,99663.69
2022-08-14T04:59:12.639Z,99665.28
2022-08-14T05:02:16.563Z,99671.56
2022-08-14T05:05:20.837Z,99673.41
2022-08-14T05:08:32.313Z,99680.31
2022-08-14T05:11:45.478Z,99681.38
2022-08-14T05:14:54.968Z,99683.16
2022-08-14T05:18:03.750Z,99679.06
2022-08-14T05:21:59.559Z,99674.66
2022-08-14T05:24:40.542Z,99674.38
2022-08-14T05:27:42.425Z,99666.16
2022-08-14T05:30:44.484Z,99667.31
2022-08-14T05:33:46.708Z,99664.03
2022-08-14T05:37:01.872Z,99661.81
2022-08-14T05:40:04.567Z,99658.00
2022-08-14T05:43:06.830Z,99659.50
2022-08-14T05:46:15.048Z,99662.81
2022-08-14T05:49:17.068Z,99669.84
2022-08-14T05:52:26.404Z,99675.44
2022-08-14T05:55:44.379Z,99672.44
2022-08-14T05:58:46.515Z,99674.47
2022-08-14T06:01:47.958Z,99675.38
2022-08-14T06:04:52.502Z,99673.63
2022-08-14T06:07:54.114Z,99663.38
2022-08-14T06:11:05.584Z,99657.84
2022-08-14T06:14:12.443Z,99667.94
2022-08-14T06:17:25.630Z,99676.88
2022-08-14T06:20:28.615Z,99667.28
2022-08-14T06:23:31.715Z,99657.03
2022-08-14T06:26:33.170Z,99652.69
2022-08-14T06:29:37.268Z,99656.81
2022-08-14T06:32:42.202Z,99654.63
2022-08-14T06:35:44.584Z,99642.53
2022-08-14T06:38:50.225Z,99637.09
2022-08-14T06:41:57.971Z,99640.06
2022-08-14T06:45:01.385Z,99637.66
2022-08-14T06:48:06.237Z,99625.94
2022-08-14T06:51:14.021Z,99626.31
2022-08-14T06:54:15.519Z,99620.78
2022-08-14T06:57:17.889Z,99615.84
2022-08-14T07:00:26.981Z,99606.91
2022-08-14T07:03:48.699Z,99596.31
2022-08-14T07:06:55.554Z,99595.34
2022-08-14T07:10:00.632Z,99588.03
2022-08-14T07:13:04.181Z,99581.31
2022-08-14T07:16:06.254Z,99587.28
2022-08-14T07:19:09.803Z,99577.72
2022-08-14T07:22:20.288Z,99598.09
2022-08-14T07:25:22.095Z,99602.13
2022-08-14T07:28:43.393Z,99602.31
2022-08-14T07:31:46.460Z,99597.84
2022-08-14T07:34:48.741Z,99596.22
2022-08-14T07:37:52.594Z,99591.91
2022-08-14T07:40:54.468Z,99593.59
2022-08-14T07:43:57.843Z,99599.25
2022-08-14T07:46:59.369Z,99609.19
2022-08-14T07:50:03.574Z,99607.41
2022-08-14T07:53:06.760Z,99611.47
2022-08-14T07:56:43.767Z,99609.56
2022-08-14T07:59:42.182Z,99621.31
2022-08-14T08:02:50.536Z,99620.41
2022-08-14T08:05:57.781Z,99624.19
2022-08-14T08:09:01.143Z,99610.19
2022-08-14T08:12:09.340Z,99613.38
2022-08-14T08:15:17.980Z,99602.63
2022-08-14T08:18:29.443Z,99610.13
2022-08-14T08:21:33.230Z,99613.09
2022-08-14T08:24:37.062Z,99605.78
2022-08-14T08:27:38.898Z,99604.81
2022-08-14T08:30:57.946Z,99604.78
2022-08-14T08:34:05.284Z,99609.97
2022-08-14T08:37:08.718Z,99618.16
2022-08-14T08:40:11.481Z,99609.56
2022-08-14T08:43:23.882Z,99601.84
2022-08-14T08:46:26.134Z,99601.84
2022-08-14T08:49:52.676Z,99607.56
2022-08-14T08:53:06.428Z,99596.19
2022-08-14T08:56:07.923Z,99591.59
2022-08-14T08:59:31.669Z,99594.53
2022-08-14T09:02:35.628Z,99591.66
2022-08-14T09:05:49.998Z,99588.91
2022-08-14T09:08:55.906Z,99581.94
2022-08-14T09:12:00.129Z,99575.78
2022-08-14T09:15:11.824Z,99570.84
2022-08-14T09:18:16.515Z,99580.66
2022-08-14T09:21:21.063Z,99577.03
2022-08-14T09:24:31.646Z,99576.34
2022-08-14T09:27:38.189Z,99573.69
2022-08-14T09:30:54.280Z,99562.72
2022-08-14T09:34:00.903Z,99560.91
2022-08-14T09:37:20.062Z,99560.94
2022-08-14T09:40:43.086Z,99542.13
2022-08-14T09:44:05.254Z,99547.78
2022-08-14T09:47:10.647Z,99538.78
2022-08-14T09:50:20.546Z,99529.84
2022-08-14T09:54:19.693Z,99532.63
2022-08-14T09:56:57.298Z,99534.53
2022-08-14T10:00:29.381Z,99538.13
2022-08-14T10:03:35.279Z,99536.22
2022-08-14T10:06:46.631Z,99522.81
2022-08-14T10:09:59.943Z,99519.19
2022-08-14T10:13:06.174Z,99514.72
2022-08-14T10:16:08.857Z,99513.84
2022-08-14T10:19:28.702Z,99521.09
2022-08-14T10:23:12.484Z,99525.59
2022-08-14T10:26:05.223Z,99511.16
2022-08-14T10:29:19.379Z,99522.88
2022-08-14T10:32:36.145Z,99515.66
2022-08-14T10:35:48.225Z,99511.13
2022-08-14T10:38:57.875Z,99509.34
2022-08-14T10:42:21.032Z,99502.13
2022-08-14T10:45:24.395Z,99488.53
2022-08-14T10:48:37.068Z,99484.94
2022-08-14T10:51:42.485Z,99471.38
2022-08-14T10:54:47.424Z,99470.47
2022-08-14T10:57:53.683Z,99463.19
2022-08-14T11:00:58.046Z,99455.88
2022-08-14T11:04:00.215Z,99452.19
2022-08-14T11:07:02.186Z,99450.31
2022-08-14T11:10:09.597Z,99434.75
2022-08-14T11:13:21.367Z,99424.78
2022-08-14T11:16:26.910Z,99419.41
2022-08-14T11:19:33.479Z,99422.16
2022-08-14T11:23:03.470Z,99417.41
2022-08-14T11:26:03.241Z,99413.00
2022-08-14T11:29:10.394Z,99422.81
2022-08-14T11:32:12.202Z,99408.41
2022-08-14T11:35:16.068Z,99409.50
2022-08-14T11:38:20.041Z,99404.91
2022-08-14T11:41:21.790Z,99399.09
2022-08-14T11:44:45.034Z,99389.91
2022-08-14T11:48:13.532Z,99408.09
2022-08-14T11:51:14.613Z,99398.97
2022-08-14T11:54:19.880Z,99401.59
2022-08-14T11:57:22.942Z,99404.97
2022-08-14T12:00:31.711Z,99409.38
2022-08-14T12:03:51.445Z,99413.63
2022-08-14T12:06:55.878Z,99403.25
2022-08-14T12:09:57.372Z,99398.47
2022-08-14T12:12:58.977Z,99395.47
2022-08-14T12:16:20.438Z,99396.50
2022-08-14T12:19:22.527Z,99391.78
2022-08-14T12:22:37.638Z,99383.53
2022-08-14T12:25:45.383Z,99374.13
2022-08-14T12:29:16.596Z,99361.31
2022-08-14T12:32:18.316Z,99360.09
2022-08-14T12:35:19.812Z,99364.97
2022-08-14T12:38:43.594Z,99366.03
2022-08-14T12:42:07.274Z,99344.28
2022-08-14T12:45:16.625Z,99341.69
2022-08-14T12:48:21.092Z,99332.09
2022-08-14T12:51:33.548Z,99317.03
2022-08-14T12:54:35.083Z,99317.53
2022-08-14T12:57:47.757Z,99317.13
2022-08-14T13:01:14.279Z,99303.38
2022-08-14T13:04:15.332Z,99297.91
2022-08-14T13:07:16.970Z,99294.03
2022-08-14T13:10:47.101Z,99294.28
2022-08-14T13:13:44.808Z,99298.75
2022-08-14T13:16:50.575Z,99286.69
2022-08-14T13:19:55.370Z,99290.31
2022-08-14T13:22:57.882Z,99287.56
2022-08-14T13:26:02.886Z,99284.69
2022-08-14T13:29:06.210Z,99278.34
2022-08-14T13:32:13.596Z,99280.34
2022-08-14T13:35:17.687Z,99280.31
2022-08-14T13:38:21.627Z,99278.75
2022-08-14T13:41:31.473Z,99270.25
2022-08-14T13:44:35.028Z,99268.53
2022-08-14T13:47:36.980Z,99260.78
2022-08-14T13:50:41.352Z,99248.94
2022-08-14T13:54:06.955Z,99244.19
2022-08-14T13:57:12.525Z,99234.97
2022-08-14T14:00:15.325Z,99233.59
2022-08-14T14:03:21.922Z,99236.66
2022-08-14T14:06:24.858Z,99228.22
2022-08-14T14:09:37.742Z,99222.28
2022-08-14T14:12:56.095Z,99221.75
2022-08-14T14:16:00.795Z,99218.59
2022-08-14T14:19:10.538Z,99205.75
2022-08-14T14:22:35.907Z,99197.63
2022-08-14T14:25:43.235Z,99203.56
2022-08-14T14:29:01.622Z,99197.78
2022-08-14T14:32:04.160Z,99192.31
2022-08-14T14:35:11.504Z,99198.25
2022-08-14T14:38:15.283Z,99198.81
2022-08-14T14:41:22.366Z,99194.53
2022-08-14T14:44:32.944Z,99193.66
2022-08-14T14:47:35.015Z,99193.66
2022-08-14T14:50:40.140Z,99194.13
2022-08-14T14:53:45.024Z,99197.50
2022-08-14T14:56:51.562Z,99186.06
2022-08-14T14:59:53.788Z,99188.94
2022-08-14T15:02:57.744Z,99182.31
2022-08-14T15:06:01.569Z,99181.34
2022-08-14T15:09:05.434Z,99177.03
2022-08-14T15:12:34.753Z,99174.19
2022-08-14T15:15:37.283Z,99164.78
2022-08-14T15:18:46.458Z,99161.25
2022-08-14T15:21:50.850Z,99162.59
2022-08-14T15:24:52.809Z,99161.16
2022-08-14T15:27:54.958Z,99161.03
2022-08-14T15:30:59.005Z,99159.06
2022-08-14T15:34:43.693Z,99162.69
2022-08-14T15:37:36.750Z,99156.69
2022-08-14T15:40:44.018Z,99155.53
2022-08-14T15:43:54.182Z,99156.56
2022-08-14T15:46:59.666Z,99157.75
2022-08-14T15:50:08.636Z,99162.03
2022-08-14T15:53:11.997Z,99163.28
2022-08-14T15:56:20.862Z,99160.34
2022-08-14T15:59:56.843Z,99160.06
2022-08-14T16:03:00.751Z,99155.84
2022-08-14T16:06:04.504Z,99156.38
2022-08-14T16:09:11.061Z,99149.94
2022-08-14T16:12:12.953Z,99145.72
2022-08-14T16:15:16.952Z,99146.75
2022-08-14T16:18:20.114Z,99146.13
2022-08-14T16:21:22.966Z,99143.84
2022-08-14T16:24:26.920Z,99147.19
2022-08-14T16:27:39.678Z,99139.72
2022-08-14T16:30:48.653Z,99146.25
2022-08-14T16:33:59.686Z,99139.91
2022-08-14T16:37:03.098Z,99145.22
2022-08-14T16:40:05.300Z,99140.53
2022-08-14T16:43:13.591Z,99140.75
2022-08-14T16:46:22.264Z,99139.91
2022-08-14T16:49:26.100Z,99131.53
2022-08-14T16:52:54.676Z,99126.53
2022-08-14T16:56:23.496Z,99122.34
2022-08-14T16:59:30.315Z,99122.53
2022-08-14T17:02:36.763Z,99121.88
2022-08-14T17:05:46.572Z,99118.34
2022-08-14T17:08:48.606Z,99118.50
2022-08-14T17:11:56.921Z,99118.03
2022-08-14T17:15:10.607Z,99112.78
2022-08-14T17:18:14.820Z,99120.44
2022-08-14T17:21:19.375Z,99123.69
2022-08-14T17:24:57.230Z,99117.59
2022-08-14T17:27:48.192Z,99115.31
2022-08-14T17:30:57.102Z,99112.75
2022-08-14T17:33:59.300Z,99112.75
2022-08-14T17:37:02.537Z,99119.13
2022-08-14T17:40:15.055Z,99109.28
2022-08-14T17:43:17.681Z,99101.09
2022-08-14T17:46:43.942Z,99110.31
2022-08-14T17:49:52.268Z,99110.03
2022-08-14T17:52:54.162Z,99111.34
2022-08-14T17:56:01.252Z,99109.88
2022-08-14T17:59:06.199Z,99111.56
2022-08-14T18:02:11.434Z,99110.94
2022-08-14T18:05:23.659Z,99113.63
2022-08-14T18:08:41.990Z,99110.06
2022-08-14T18:11:45.895Z,99111.91
2022-08-14T18:14:52.755Z,99118.41
2022-08-14T18:17:54.843Z,99118.41
2022-08-14T18:21:40.782Z,99113.38
2022-08-14T18:24:29.465Z,99113.47
2022-08-14T18:27:37.422Z,99110.97
2022-08-14T18:30:58.221Z,99113.81
2022-08-14T18:34:11.748Z,99121.06
2022-08-14T18:37:20.598Z,99120.16
2022-08-14T18:40:22.852Z,99117.47
2022-08-14T18:43:42.068Z,99112.09
2022-08-14T18:47:19.661Z,99121.13
2022-08-14T18:50:31.000Z,99124.75
2022-08-14T18:53:57.074Z,99126.59
2022-08-14T18:57:00.284Z,99123.91
2022-08-14T19:00:33.433Z,99127.50
2022-08-14T19:03:36.507Z,99124.78
2022-08-14T19:06:55.745Z,99127.47
2022-08-14T19:10:07.865Z,99131.06
2022-08-14T19:13:12.381Z,99128.25
2022-08-14T19:16:23.063Z,99130.97
2022-08-14T19:19:38.372Z,99125.53
2022-08-14T19:22:41.485Z,99135.38
2022-08-14T19:25:51.807Z,99129.03
2022-08-14T19:28:53.399Z,99128.97
2022-08-14T19:32:02.471Z,99127.09
2022-08-14T19:35:55.974Z,99134.25
2022-08-14T19:38:57.457Z,99136.88
2022-08-14T19:41:59.253Z,99131.47
2022-08-14T19:45:01.069Z,99136.00
2022-08-14T19:48:13.154Z,99138.53
2022-08-14T19:51:15.840Z,99130.28
2022-08-14T19:54:18.075Z,99142.72
2022-08-14T19:57:31.203Z,99137.28
2022-08-14T20:00:33.315Z,99144.69
2022-08-14T20:04:00.072Z,99143.53
2022-08-14T20:07:04.262Z,99140.81
2022-08-14T20:11:08.125Z,99134.50
2022-08-14T20:13:45.779Z,99135.50
2022-08-14T20:16:54.360Z,99148.81
2022-08-14T20:19:56.146Z,99148.69
2022-08-14T20:22:57.802Z,99152.03
2022-08-14T20:26:03.464Z,99159.81
2022-08-14T20:29:07.156Z,99170.81
2022-08-14T20:32:14.777Z,99182.22
2022-08-14T20:35:41.778Z,99181.47
2022-08-14T20:38:43.459Z,99179.47
2022-08-14T20:42:13.967Z,99188.28
2022-08-14T20:45:24.304Z,99182.16
2022-08-14T20:48:51.207Z,99185.28
2022-08-14T20:52:00.204Z,99179.97
2022-08-14T20:55:29.022Z,99174.59
2022-08-14T20:58:41.926Z,99179.13
2022-08-14T21:01:58.883Z,99166.53
2022-08-14T21:05:16.743Z,99171.09
2022-08-14T21:08:22.630Z,99172.91
2022-08-14T21:11:28.539Z,99171.03
2022-08-14T21:14:30.064Z,99168.22
2022-08-14T21:17:32.034Z,99176.41
2022-08-14T21:20:40.156Z,99177.19
2022-08-14T21:23:55.149Z,99171.44
2022-08-14T21:27:04.396Z,99170.47
2022-08-14T21:30:16.541Z,99174.94
2022-08-14T21:33:22.947Z,99168.44
2022-08-14T21:36:24.927Z,99163.13
2022-08-14T21:39:33.079Z,99161.34
2022-08-14T21:42:34.542Z,99174.78
2022-08-14T21:45:38.921Z,99165.47
2022-08-14T21:48:44.385Z,99175.31
2022-08-14T21:51:53.706Z,99179.38
2022-08-14T21:55:00.202Z,99183.91
2022-08-14T21:58:54.351Z,99190.13
2022-08-14T22:01:23.825Z,99189.69
2022-08-14T22:04:32.715Z,99198.63
2022-08-14T22:07:36.797Z,99191.53
2022-08-14T22:10:44.735Z,99186.44
2022-08-14T22:13:48.867Z,99187.31
2022-08-14T22:17:01.687Z,99193.03
2022-08-14T22:20:32.473Z,99198.44
2022-08-14T22:23:35.578Z,99203.09
2022-08-14T22:26:41.832Z,99191.22
2022-08-14T22:29:46.364Z,99195.72
2022-08-14T22:32:58.425Z,99195.84
2022-08-14T22:36:25.523Z,99197.91
2022-08-14T22:40:17.631Z,99195.06
2022-08-14T22:42:57.466Z,99193.13
2022-08-14T22:46:06.214Z,99193.16
2022-08-14T22:50:31.743Z,99194.22
2022-08-14T22:52:39.923Z,99189.56
2022-08-14T22:55:41.439Z,99185.78
2022-08-14T22:58:43.081Z,99182.00
2022-08-14T23:01:58.363Z,99188.41
2022-08-14T23:05:03.270Z,99182.03
2022-08-14T23:08:44.087Z,99180.19
2022-08-14T23:11:26.800Z,99179.03
2022-08-14T23:14:30.690Z,99179.78
2022-08-14T23:17:39.379Z,99191.44
2022-08-14T23:20:42.401Z,99179.69
2022-08-14T23:23:45.937Z,99178.81
2022-08-14T23:26:53.612Z,99191.25
2022-08-14T23:29:55.477Z,99188.75
2022-08-14T23:32:57.080Z,99181.53
2022-08-14T23:36:00.437Z,99179.81
2022-08-14T23:39:07.302Z,99182.47
2022-08-14T23:42:12.063Z,99183.34
2022-08-14T23:45:19.554Z,99182.59
2022-08-14T23:48:40.318Z,99174.44
2022-08-14T23:52:49.499Z,99171.88
2022-08-14T23:55:11.312Z,99185.16
2022-08-14T23:58:29.794Z,99180.63
